createdAt,value
2022-12-06T00:00:40.491Z,7.30
2022-12-06T00:04:42.180Z,6.05
2022-12-06T00:08:45.276Z,7.60
2022-12-06T00:12:47.206Z,7.00
2022-12-06T00:16:49.298Z,7.13
2022-12-06T00:20:50.887Z,6.97
2022-12-06T00:25:00.012Z,7.78
2022-12-06T00:29:01.563Z,6.53
2022-12-06T00:33:03.236Z,8.00
2022-12-06T00:37:04.819Z,7.55
2022-12-06T00:41:12.337Z,6.85
2022-12-06T00:45:14.102Z,5.78
2022-12-06T00:49:16.624Z,6.40
2022-12-06T00:53:18.720Z,5.78
2022-12-06T00:57:20.255Z,7.00
2022-12-06T01:01:33.242Z,7.13
2022-12-06T01:05:40.243Z,6.45
2022-12-06T01:09:42.399Z,8.45
2022-12-06T01:13:44.112Z,6.22
2022-12-06T01:17:45.670Z,6.97
2022-12-06T01:21:49.175Z,7.85
2022-12-06T01:25:53.858Z,9.23
2022-12-06T01:29:55.492Z,8.55
2022-12-06T01:33:57.209Z,7.25
2022-12-06T01:38:04.490Z,7.35
2022-12-06T01:42:11.325Z,7.95
2022-12-06T01:46:27.126Z,8.90
2022-12-06T01:50:32.599Z,9.27
2022-12-06T01:54:34.760Z,9.00
2022-12-06T01:58:41.413Z,8.75
2022-12-06T02:02:43.821Z,9.85
2022-12-06T02:06:46.424Z,10.48
2022-12-06T02:10:47.933Z,9.02
2022-12-06T02:15:01.068Z,7.43
2022-12-06T02:19:24.221Z,7.68
2022-12-06T02:23:59.655Z,9.18
2022-12-06T02:28:20.048Z,7.82
2022-12-06T02:32:31.593Z,8.98
2022-12-06T02:36:54.574Z,9.45
2022-12-06T02:41:04.828Z,9.80
2022-12-06T02:45:14.235Z,8.65
2022-12-06T02:49:18.107Z,11.07
2022-12-06T02:53:22.424Z,11.10
2022-12-06T02:57:45.225Z,10.23
2022-12-06T03:01:56.313Z,11.00
2022-12-06T03:06:01.081Z,10.38
2022-12-06T03:10:38.614Z,11.07
2022-12-06T03:14:48.416Z,11.30
2022-12-06T03:18:59.649Z,12.48
2022-12-06T03:23:07.115Z,10.20
2022-12-06T03:27:16.038Z,11.82
2022-12-06T03:31:17.693Z,9.95
2022-12-06T03:35:25.834Z,10.88
2022-12-06T03:40:01.951Z,10.63
2022-12-06T03:44:04.619Z,9.73
2022-12-06T03:48:27.411Z,9.35
2022-12-06T03:52:30.062Z,9.73
2022-12-06T03:56:36.705Z,10.45
2022-12-06T04:00:38.641Z,10.80
2022-12-06T04:04:40.501Z,9.77
2022-12-06T04:08:42.056Z,10.18
2022-12-06T04:13:01.976Z,10.60
2022-12-06T04:17:22.335Z,10.35
2022-12-06T04:21:32.947Z,10.43
2022-12-06T04:25:36.291Z,9.13
2022-12-06T04:29:56.420Z,11.13
2022-12-06T04:34:16.688Z,9.23
2022-12-06T04:38:36.830Z,11.00
2022-12-06T04:42:57.034Z,10.30
2022-12-06T04:46:59.975Z,9.40
2022-12-06T04:51:01.766Z,11.45
2022-12-06T04:55:05.243Z,9.00
2022-12-06T04:59:06.885Z,9.75
2022-12-06T05:03:08.372Z,9.98
2022-12-06T05:07:11.513Z,9.90
2022-12-06T05:11:13.101Z,9.02
2022-12-06T05:15:16.077Z,10.52
2022-12-06T05:19:17.885Z,9.18
2022-12-06T05:23:19.322Z,9.05
2022-12-06T05:27:20.859Z,8.13
2022-12-06T05:31:22.673Z,8.70
2022-12-06T05:35:24.229Z,9.98
2022-12-06T05:39:25.902Z,9.68
2022-12-06T05:43:29.461Z,9.93
2022-12-06T05:47:30.971Z,8.68
2022-12-06T05:51:32.607Z,8.88
2022-12-06T05:55:34.143Z,9.40
2022-12-06T05:59:35.662Z,9.52
2022-12-06T06:03:41.082Z,10.50
2022-12-06T06:07:47.430Z,8.93
2022-12-06T06:11:48.956Z,9.70
2022-12-06T06:15:50.496Z,10.98
2022-12-06T06:19:51.945Z,10.82
2022-12-06T06:23:57.215Z,11.68
2022-12-06T06:27:58.971Z,11.57
2022-12-06T06:32:00.907Z,10.32
2022-12-06T06:36:02.913Z,11.13
2022-12-06T06:40:05.660Z,10.82
2022-12-06T06:44:07.284Z,11.57
2022-12-06T06:48:08.946Z,12.73
2022-12-06T06:52:10.592Z,13.90
2022-12-06T06:56:12.203Z,16.02
2022-12-06T07:00:14.675Z,14.25
2022-12-06T07:04:17.127Z,11.43
2022-12-06T07:08:18.798Z,12.63
2022-12-06T07:12:24.582Z,10.95
2022-12-06T07:16:26.376Z,10.90
2022-12-06T07:20:27.949Z,13.05
2022-12-06T07:24:29.492Z,12.60
2022-12-06T07:28:31.073Z,11.50
2022-12-06T07:32:37.100Z,12.02
2022-12-06T07:36:38.772Z,13.48
2022-12-06T07:41:03.511Z,9.98
2022-12-06T07:45:02.984Z,11.65
2022-12-06T07:49:04.997Z,11.98
2022-12-06T07:53:06.559Z,11.48
2022-12-06T07:57:08.290Z,12.82
2022-12-06T08:01:10.138Z,14.77
2022-12-06T08:05:12.441Z,12.38
2022-12-06T08:09:14.032Z,11.27
2022-12-06T08:13:15.698Z,11.13
2022-12-06T08:17:17.507Z,10.48
2022-12-06T08:21:19.009Z,10.60
2022-12-06T08:25:23.175Z,11.18
2022-12-06T08:29:24.929Z,11.20
2022-12-06T08:33:28.123Z,11.43
2022-12-06T08:38:04.393Z,11.25
2022-12-06T08:42:55.896Z,12.02
2022-12-06T08:47:00.049Z,12.38
2022-12-06T08:51:05.594Z,14.20
2022-12-06T08:55:07.817Z,14.23
2022-12-06T08:59:31.544Z,9.82
2022-12-06T09:04:01.778Z,14.70
2022-12-06T09:08:03.739Z,15.80
2022-12-06T09:12:05.701Z,9.68
2022-12-06T09:16:15.904Z,11.55
2022-12-06T09:20:19.821Z,12.32
2022-12-06T09:25:11.843Z,13.02
2022-12-06T09:29:19.907Z,12.85
2022-12-06T09:33:26.818Z,10.90
2022-12-06T09:37:29.874Z,13.95
2022-12-06T09:42:03.806Z,12.20
2022-12-06T09:46:54.221Z,13.35
2022-12-06T09:56:08.062Z,11.27
2022-12-06T10:00:23.117Z,12.57
2022-12-06T10:05:01.683Z,12.88
2022-12-06T10:09:35.539Z,13.20
2022-12-06T10:14:19.490Z,11.27
2022-12-06T10:18:48.019Z,12.82
2022-12-06T10:23:05.541Z,10.82
2022-12-06T10:27:25.812Z,10.43
2022-12-06T10:32:06.260Z,12.20
2022-12-06T10:36:21.999Z,11.93
2022-12-06T10:41:16.882Z,11.43
2022-12-06T10:46:09.367Z,9.70
2022-12-06T10:50:40.193Z,11.18
2022-12-06T10:55:08.732Z,10.43
2022-12-06T11:00:15.748Z,12.00
2022-12-06T11:04:39.831Z,9.55
2022-12-06T11:09:21.325Z,11.85
2022-12-06T11:13:51.473Z,12.40
2022-12-06T11:18:36.030Z,12.00
2022-12-06T11:23:18.291Z,10.45
2022-12-06T11:28:22.809Z,11.75
2022-12-06T11:32:55.579Z,12.52
2022-12-06T11:37:24.217Z,12.10
2022-12-06T11:41:30.766Z,10.98
2022-12-06T11:45:34.503Z,10.70
2022-12-06T11:50:04.201Z,9.73
2022-12-06T11:55:11.000Z,11.07
2022-12-06T12:00:02.976Z,13.45
2022-12-06T12:04:39.119Z,14.32
2022-12-06T12:09:19.688Z,11.70
2022-12-06T12:14:01.371Z,12.48
2022-12-06T12:18:26.480Z,11.02
2022-12-06T12:23:14.895Z,12.95
2022-12-06T12:27:53.100Z,12.68
2022-12-06T12:32:23.698Z,13.75
2022-12-06T12:37:10.878Z,12.02
2022-12-06T12:41:33.967Z,12.95
2022-12-06T12:46:03.713Z,12.05
2022-12-06T12:50:56.027Z,11.52
2022-12-06T13:00:01.726Z,12.18
2022-12-06T13:04:46.778Z,11.80
2022-12-06T13:08:48.851Z,13.10
2022-12-06T13:13:33.838Z,11.27
2022-12-06T13:18:35.640Z,9.55
2022-12-06T13:23:00.801Z,11.05
2022-12-06T13:31:51.917Z,14.73
2022-12-06T13:36:21.348Z,13.07
2022-12-06T13:46:41.477Z,12.85
2022-12-06T13:51:28.877Z,14.40
2022-12-06T13:55:59.283Z,12.95
2022-12-06T14:00:40.150Z,13.65
2022-12-06T14:05:39.560Z,11.98
2022-12-06T14:09:50.073Z,15.77
2022-12-06T14:14:20.463Z,13.30
2022-12-06T14:23:25.371Z,13.25
2022-12-06T14:28:07.145Z,12.23
2022-12-06T14:32:37.993Z,12.65
2022-12-06T14:37:00.451Z,12.73
2022-12-06T14:41:35.169Z,12.40
2022-12-06T14:45:45.157Z,11.25
2022-12-06T14:50:28.770Z,9.77
2022-12-06T14:55:12.137Z,10.68
2022-12-06T15:00:19.400Z,12.93
2022-12-06T15:05:18.929Z,12.90
2022-12-06T15:09:51.977Z,11.55
2022-12-06T15:14:42.139Z,10.35
2022-12-06T15:19:36.849Z,12.75
2022-12-06T15:23:56.460Z,10.63
2022-12-06T15:28:16.906Z,10.43
2022-12-06T15:32:51.040Z,9.88
2022-12-06T15:37:39.149Z,11.68
2022-12-06T15:42:05.771Z,10.32
2022-12-06T15:46:09.862Z,11.95
2022-12-06T15:50:38.612Z,11.05
2022-12-06T15:55:00.509Z,11.13
2022-12-06T15:59:28.669Z,11.00
2022-12-06T16:03:56.980Z,9.40
2022-12-06T16:07:58.960Z,8.88
2022-12-06T16:12:00.440Z,9.95
2022-12-06T16:16:09.756Z,8.07
2022-12-06T16:32:27.846Z,10.30
2022-12-06T16:36:32.752Z,8.85
2022-12-06T16:40:34.718Z,9.20
2022-12-06T16:44:56.363Z,9.95
2022-12-06T16:49:46.253Z,8.60
2022-12-06T16:54:06.380Z,9.10
2022-12-06T16:58:07.911Z,9.50
2022-12-06T17:02:33.587Z,7.30
2022-12-06T17:06:55.255Z,8.13
2022-12-06T17:11:16.877Z,8.35
2022-12-06T17:16:01.361Z,7.00
2022-12-06T17:20:10.904Z,9.98
2022-12-06T17:24:35.516Z,6.88
2022-12-06T17:28:58.275Z,6.65
2022-12-06T17:32:59.780Z,7.90
2022-12-06T17:37:04.327Z,7.97
2022-12-06T17:41:51.532Z,32.08
2022-12-06T17:46:10.100Z,8.85
2022-12-06T17:50:33.570Z,6.65
2022-12-06T17:54:35.688Z,17.40
2022-12-06T17:58:37.264Z,7.20
2022-12-06T18:03:02.328Z,6.10
2022-12-06T18:07:23.998Z,8.50
2022-12-06T18:11:40.981Z,6.65
2022-12-06T18:15:48.621Z,6.35
2022-12-06T18:19:54.221Z,7.97
2022-12-06T18:24:28.025Z,5.53
2022-12-06T18:29:02.076Z,7.20
2022-12-06T18:41:31.039Z,5.47
2022-12-06T18:45:32.857Z,6.47
2022-12-06T18:49:34.498Z,6.20
2022-12-06T18:54:06.354Z,4.43
2022-12-06T19:02:10.918Z,6.30
2022-12-06T19:06:24.830Z,4.88
2022-12-06T19:10:32.666Z,5.47
2022-12-06T19:14:35.153Z,4.97
2022-12-06T19:18:37.005Z,4.68
2022-12-06T19:22:39.649Z,5.57
2022-12-06T19:26:41.503Z,5.13
2022-12-06T19:30:43.103Z,4.70
2022-12-06T19:34:44.825Z,5.05
2022-12-06T19:38:46.547Z,5.00
2022-12-06T19:43:07.261Z,4.60
2022-12-06T19:47:09.192Z,5.90
2022-12-06T19:51:11.234Z,4.38
2022-12-06T19:55:12.822Z,5.45
2022-12-06T20:04:02.203Z,4.90
2022-12-06T20:08:03.756Z,4.45
2022-12-06T20:12:26.576Z,4.95
2022-12-06T20:32:15.414Z,5.80
2022-12-06T20:50:50.372Z,4.72
2022-12-06T21:00:00.809Z,5.03
2022-12-06T21:04:05.360Z,5.20
2022-12-06T21:08:07.058Z,5.57
2022-12-06T21:12:28.731Z,4.97
2022-12-06T21:20:47.781Z,5.68
2022-12-06T21:29:05.940Z,5.60
2022-12-06T21:33:07.676Z,5.43
2022-12-06T21:37:09.549Z,6.15
2022-12-06T21:41:13.100Z,6.25
2022-12-06T21:49:32.267Z,5.50
2022-12-06T21:58:15.621Z,5.05
2022-12-06T22:02:18.785Z,4.97
2022-12-06T22:06:40.527Z,4.53
2022-12-06T22:10:42.624Z,6.07
2022-12-06T22:19:19.353Z,6.55
2022-12-06T22:23:21.630Z,7.07
2022-12-06T22:27:23.376Z,8.18
2022-12-06T22:31:27.784Z,8.13
2022-12-06T22:35:29.541Z,8.63
2022-12-06T22:39:33.695Z,8.82
2022-12-06T22:43:37.929Z,8.75
2022-12-06T22:47:39.593Z,10.65
2022-12-06T22:52:01.891Z,9.65
2022-12-06T22:56:11.936Z,11.65
2022-12-06T23:00:17.420Z,12.93
2022-12-06T23:04:22.302Z,12.77
2022-12-06T23:08:44.318Z,12.52
2022-12-06T23:13:06.070Z,13.52
2022-12-06T23:17:08.667Z,15.43
2022-12-06T23:21:28.680Z,17.33
2022-12-06T23:25:30.325Z,16.98
2022-12-06T23:29:31.840Z,17.27
2022-12-06T23:33:34.823Z,15.55
2022-12-06T23:37:37.224Z,16.73
2022-12-06T23:42:03.940Z,17.40
2022-12-06T23:46:30.239Z,16.80
2022-12-06T23:50:31.768Z,13.20
2022-12-06T23:54:33.366Z,12.27
2022-12-06T23:58:55.248Z,14.63
